Terminal Aerodrome Forecast
Issued by NWS Cleveland, OH

Home | Current Version | Previous Version | Graphics & Text | Print | Product List | Glossary On
Versions: 1 2 3 4 5 6 7 8 9 10 11 12 13 14 15 16 17 18 19 20 21 22 23 24 25 26 27 28 29 30 31 32 33
000
FTUS41 KCLE 220800 AAA
TAFCLE
TAF AMD
KCLE 220853Z 2209/2312 00000KT P6SM BKN250
     FM221400 15006KT P6SM SCT045 BKN120
     FM221800 15006KT P6SM BKN045
     FM222200 13008KT P6SM OVC035
     FM230400 13010KT 6SM BR VCSH OVC025
     FM230800 13010KT 6SM -SHRA BR OVC025=

USA.gov is the U.S. government's official web portal to all federal, state and local government web resources and services.